LFBL/LIG METAR and TAF weather

Enter ICAO airport designator
Station Type Date Time Source
LFBL METAR 2020/09/20 11:30 UTC NOAA

LFBL 201130Z AUTO 15005KT 120V200 9999 SCT015 BKN022 OVC028 19/15 Q1016 TEMPO 4000 SHRA BKN013 FEW030CB


Station Type Date Time Source
LFBL Decoded METAR 2020/09/20 11:30 UTC NOAA

Limoges, France (LFBL) 45-52N 001-11E 402M
Sep 20, 2020 - 07:30 AM EDT / 2020.09.20 1130 UTC
Wind: from the SSE (150 degrees) at 6 MPH (5 KT) (direction variable):0
Visibility: greater than 7 mile(s):0
Sky conditions: overcast
Weather: Cumulonimbus clouds observed
Temperature: 66 F (19 C)
Dew Point: 59 F (15 C)
Relative Humidity: 77%
Pressure (altimeter): 30.00 in. Hg (1016 hPa)
ob: LFBL 201130Z AUTO 15005KT 120V200 9999 SCT015 BKN022 OVC028 19/15 Q1016 TEMPO 4000 SHRA BKN013 FEW030CB
cycle: 11

Station Type Date Time Source
LFBL TAF 2020/09/20 12:21 UTC NOAA

TAF TAF LFBL 201100Z 2012/2112 18005KT 9999 BKN013TCU PROB40
TEMPO 2012/2024 4000 SHRA BKN013 FEW030CB PROB30
TEMPO 2014/2018 TSRA
BECMG 2100/2102 4000 BR OVC003 PROB40 2103/2108 0600 FG VV///
BECMG 2108/2110 6000 NSW
BECMG 2110/2112 BKN007

Example: see airport list